Time;durP1;ratioP1;P1;durP2;ratioP2;P2;SDS_P1;SDS_P2;PMS_P1;PMS_P2;Temp;Humidity;BMP_temperature;BMP_pressure;BME280_temperature;BME280_humidity;BME280_pressure;Samples;Min_cycle;Max_cycle;Signal;HPM_P1;HPM_P2
2023/04/30 00:02:20;;;;;;;7.13;3.63;;;;;;;;;;4991992;28;20074;-66
2023/04/30 00:04:47;;;;;;;5.30;3.40;;;;;;;;;;5033179;22;20045;-66
2023/04/30 00:07:14;;;;;;;4.68;3.22;;;;;;;;;;5049887;28;20546;-68
2023/04/30 00:09:42;;;;;;;5.43;3.42;;;;;;;;;;5049081;28;20052;-67
2023/04/30 00:12:09;;;;;;;6.40;3.42;;;;;;;;;;5049243;28;20045;-67
2023/04/30 00:14:36;;;;;;;6.30;4.13;;;;;;;;;;5050067;28;20428;-68
2023/04/30 00:17:03;;;;;;;6.40;3.80;;;;;;;;;;5049954;28;20088;-68
2023/04/30 00:19:30;;;;;;;6.20;3.95;;;;;;;;;;5049942;28;20095;-67
2023/04/30 00:21:58;;;;;;;5.70;3.78;;;;;;;;;;5049639;28;20485;-66
2023/04/30 00:24:26;;;;;;;6.30;3.30;;;;;;;;;;5049627;28;20079;-67
2023/04/30 00:26:54;;;;;;;5.75;3.58;;;;;;;;;;5049498;28;20048;-67
2023/04/30 00:29:21;;;;;;;6.22;3.88;;;;;;;;;;5049394;28;20041;-67
2023/04/30 00:31:47;;;;;;;6.25;4.07;;;;;;;;;;5050195;28;20103;-67
2023/04/30 00:34:14;;;;;;;6.18;3.70;;;;;;;;;;5049801;28;20044;-67
2023/04/30 00:36:41;;;;;;;7.35;4.15;;;;;;;;;;5049665;28;20516;-67
2023/04/30 00:39:08;;;;;;;5.90;3.78;;;;;;;;;;5049358;28;20045;-67
2023/04/30 00:41:36;;;;;;;6.35;4.50;;;;;;;;;;5049376;28;20049;-67
2023/04/30 00:44:05;;;;;;;6.85;3.60;;;;;;;;;;5049521;28;20106;-68
2023/04/30 00:46:32;;;;;;;5.88;4.05;;;;;;;;;;5049377;28;20139;-66
2023/04/30 00:49:01;;;;;;;7.93;4.05;;;;;;;;;;5049388;28;20135;-66
2023/04/30 00:51:30;;;;;;;6.20;3.72;;;;;;;;;;5048801;28;20098;-67
2023/04/30 00:53:57;;;;;;;8.00;4.00;;;;;;;;;;5049250;28;20076;-68
2023/04/30 00:56:24;;;;;;;6.15;3.92;;;;;;;;;;5049481;28;20067;-68
2023/04/30 00:58:55;;;;;;;6.43;3.72;;;;;;;;;;5049636;28;20056;-67
2023/04/30 01:01:24;;;;;;;6.13;3.67;;;;;;;;;;5049676;28;20041;-67
2023/04/30 01:03:51;;;;;;;5.65;3.50;;;;;;;;;;5049073;28;20060;-67
2023/04/30 01:06:18;;;;;;;6.43;4.15;;;;;;;;;;5048954;28;20048;-67
2023/04/30 01:08:45;;;;;;;6.03;4.05;;;;;;;;;;5046924;28;20045;-67
2023/04/30 01:11:26;;;;;;;6.13;3.50;;;;;;;;;;5030579;28;20103;-67
2023/04/30 01:14:07;;;;;;;5.75;3.60;;;;;;;;;;5033422;28;20529;-67
2023/04/30 01:16:39;;;;;;;7.18;4.13;;;;;;;;;;5033068;28;20095;-67
2023/04/30 01:19:12;;;;;;;5.90;3.95;;;;;;;;;;5033252;28;20052;-68
2023/04/30 01:21:41;;;;;;;11.05;4.97;;;;;;;;;;5033083;28;20140;-67
2023/04/30 01:24:24;;;;;;;6.22;4.18;;;;;;;;;;5033276;28;20111;-68
2023/04/30 01:27:05;;;;;;;5.97;3.70;;;;;;;;;;5033217;28;20470;-68
2023/04/30 01:29:34;;;;;;;;;;;;;;;;;;5033233;28;20053;-68
2023/04/30 01:32:02;;;;;;;5.63;3.50;;;;;;;;;;5032882;28;20008;-68
2023/04/30 01:34:29;;;;;;;5.85;3.78;;;;;;;;;;5033126;28;20060;-67
2023/04/30 01:37:09;;;;;;;6.63;4.07;;;;;;;;;;5033087;28;20053;-68
2023/04/30 01:39:57;;;;;;;5.90;3.92;;;;;;;;;;5032271;28;20064;-66
2023/04/30 01:42:34;;;;;;;6.28;3.88;;;;;;;;;;5032466;28;20061;-68
2023/04/30 01:45:23;;;;;;;5.65;4.03;;;;;;;;;;5032912;28;20514;-69
2023/04/30 01:47:56;;;;;;;6.60;4.00;;;;;;;;;;5032682;28;20084;-68
2023/04/30 01:50:29;;;;;;;7.03;3.90;;;;;;;;;;5032634;28;20053;-67
2023/04/30 01:53:00;;;;;;;6.22;4.03;;;;;;;;;;5032732;28;20137;-68
2023/04/30 01:55:30;;;;;;;6.57;3.75;;;;;;;;;;5032683;28;20053;-68
2023/04/30 01:57:58;;;;;;;6.43;3.92;;;;;;;;;;5032733;28;20112;-68
2023/04/30 02:00:29;;;;;;;6.43;4.22;;;;;;;;;;5032730;28;20104;-69
2023/04/30 02:02:56;;;;;;;6.47;4.18;;;;;;;;;;5046830;28;20056;-68
2023/04/30 02:05:23;;;;;;;6.05;4.15;;;;;;;;;;5052555;28;20045;-68
2023/04/30 02:07:52;;;;;;;6.35;3.92;;;;;;;;;;5052525;28;20110;-68
2023/04/30 02:10:22;;;;;;;6.15;3.72;;;;;;;;;;5052080;28;20056;-67
2023/04/30 02:12:49;;;;;;;6.43;3.70;;;;;;;;;;5051946;28;20102;-68
2023/04/30 02:15:16;;;;;;;5.28;4.03;;;;;;;;;;5052176;28;20110;-68
2023/04/30 02:17:44;;;;;;;7.30;4.53;;;;;;;;;;5052219;28;20448;-68
2023/04/30 02:20:11;;;;;;;6.80;4.57;;;;;;;;;;5052098;28;20055;-68
2023/04/30 02:22:38;;;;;;;6.25;4.03;;;;;;;;;;5050425;28;20079;-68
2023/04/30 02:25:06;;;;;;;7.65;4.28;;;;;;;;;;5051823;28;20148;-68
2023/04/30 02:27:33;;;;;;;7.40;4.30;;;;;;;;;;5051440;28;20382;-68
2023/04/30 02:30:01;;;;;;;7.05;4.72;;;;;;;;;;5051732;28;20096;-67
2023/04/30 02:32:28;;;;;;;8.80;4.63;;;;;;;;;;5051825;28;20049;-68
2023/04/30 02:34:56;;;;;;;7.15;4.63;;;;;;;;;;5052012;28;20049;-67
2023/04/30 02:37:23;;;;;;;7.13;4.28;;;;;;;;;;5051832;28;20044;-66
2023/04/30 02:39:52;;;;;;;7.22;4.22;;;;;;;;;;5051442;28;20040;-67
2023/04/30 02:42:18;;;;;;;7.38;4.63;;;;;;;;;;5051737;28;20568;-68
2023/04/30 02:44:45;;;;;;;6.47;4.38;;;;;;;;;;5051951;28;20055;-68
2023/04/30 02:47:12;;;;;;;7.18;3.92;;;;;;;;;;5051766;28;20048;-68
2023/04/30 02:49:39;;;;;;;7.07;4.28;;;;;;;;;;5051380;28;20412;-68
2023/04/30 02:52:08;;;;;;;7.05;4.78;;;;;;;;;;5051386;28;20049;-68
2023/04/30 02:54:35;;;;;;;6.75;4.38;;;;;;;;;;5051828;28;20084;-68
2023/04/30 02:57:02;;;;;;;7.85;5.15;;;;;;;;;;5051796;28;20037;-68
2023/04/30 02:59:29;;;;;;;7.30;4.90;;;;;;;;;;5051453;28;20442;-68
2023/04/30 03:01:56;;;;;;;7.35;5.10;;;;;;;;;;5044973;28;20568;-68
2023/04/30 03:04:23;;;;;;;7.10;5.10;;;;;;;;;;5031335;28;20115;-68
2023/04/30 03:06:49;;;;;;;7.72;5.25;;;;;;;;;;5031096;28;20045;-69
2023/04/30 03:09:18;;;;;;;7.15;4.20;;;;;;;;;;5031080;28;20042;-67
2023/04/30 03:11:45;;;;;;;7.43;4.95;;;;;;;;;;5031090;28;20057;-67
2023/04/30 03:14:11;;;;;;;8.25;5.25;;;;;;;;;;5030948;28;20046;-67
2023/04/30 03:16:38;;;;;;;6.60;4.30;;;;;;;;;;5030960;28;20188;-67
2023/04/30 03:19:05;;;;;;;7.40;4.82;;;;;;;;;;5030838;28;20107;-68
2023/04/30 03:21:32;;;;;;;7.70;5.40;;;;;;;;;;5030875;28;20729;-68
2023/04/30 03:23:59;;;;;;;7.43;5.00;;;;;;;;;;5030779;28;20053;-67
2023/04/30 03:26:27;;;;;;;8.35;5.28;;;;;;;;;;5031162;28;20064;-68
2023/04/30 03:28:55;;;;;;;6.55;4.80;;;;;;;;;;5030684;28;20183;-67
2023/04/30 03:31:21;;;;;;;7.03;4.88;;;;;;;;;;5030391;28;20081;-67
2023/04/30 03:33:48;;;;;;;6.45;4.65;;;;;;;;;;5030260;28;20046;-68
2023/04/30 03:36:15;;;;;;;7.57;5.05;;;;;;;;;;5030876;28;20115;-68
2023/04/30 03:38:42;;;;;;;7.25;4.85;;;;;;;;;;5030690;28;20058;-67
2023/04/30 03:41:09;;;;;;;8.43;4.68;;;;;;;;;;5030543;28;20501;-68
2023/04/30 03:43:38;;;;;;;7.63;5.07;;;;;;;;;;5030843;28;20104;-68
2023/04/30 03:46:05;;;;;;;6.55;4.30;;;;;;;;;;5031091;28;20474;-67
2023/04/30 03:48:32;;;;;;;8.38;5.20;;;;;;;;;;5031588;28;20107;-68
2023/04/30 03:50:59;;;;;;;8.18;4.75;;;;;;;;;;5031136;28;20871;-68
2023/04/30 03:53:26;;;;;;;8.10;4.82;;;;;;;;;;5031240;28;20050;-68
2023/04/30 03:55:54;;;;;;;8.07;5.78;;;;;;;;;;5031133;28;20045;-69
2023/04/30 03:58:21;;;;;;;7.93;5.28;;;;;;;;;;5030683;28;20053;-68
2023/04/30 04:00:49;;;;;;;7.20;5.10;;;;;;;;;;5030867;28;20486;-67
2023/04/30 04:03:16;;;;;;;7.47;5.20;;;;;;;;;;5047699;28;20103;-67
2023/04/30 04:05:43;;;;;;;8.10;5.65;;;;;;;;;;5049799;28;20048;-68
2023/04/30 04:08:10;;;;;;;8.20;5.13;;;;;;;;;;5049856;28;20052;-67
2023/04/30 04:10:38;;;;;;;6.82;4.68;;;;;;;;;;5050003;28;20095;-67
2023/04/30 04:13:06;;;;;;;8.20;5.10;;;;;;;;;;5050937;28;20235;-67
2023/04/30 04:15:33;;;;;;;7.50;5.68;;;;;;;;;;5050927;28;20052;-68
2023/04/30 04:18:01;;;;;;;8.13;5.70;;;;;;;;;;5050099;28;20049;-69
2023/04/30 04:20:28;;;;;;;8.38;5.63;;;;;;;;;;5050339;28;20053;-68
2023/04/30 04:22:55;;;;;;;9.10;5.15;;;;;;;;;;5050783;28;20057;-68
2023/04/30 04:25:24;;;;;;;7.47;5.20;;;;;;;;;;5049884;28;20052;-68
2023/04/30 04:27:51;;;;;;;8.88;6.05;;;;;;;;;;5050262;28;20065;-68
2023/04/30 04:30:18;;;;;;;6.82;4.57;;;;;;;;;;5049216;28;20076;-68
2023/04/30 04:32:48;;;;;;;12.55;5.30;;;;;;;;;;5049413;28;20049;-68
2023/04/30 04:35:16;;;;;;;8.25;5.47;;;;;;;;;;5049717;28;20547;-68
2023/04/30 04:37:43;;;;;;;7.07;5.00;;;;;;;;;;5049861;28;20044;-68
2023/04/30 04:40:11;;;;;;;7.60;4.85;;;;;;;;;;5049658;28;20045;-68
2023/04/30 04:42:38;;;;;;;7.55;5.32;;;;;;;;;;5049518;28;20053;-67
2023/04/30 04:45:06;;;;;;;7.40;5.75;;;;;;;;;;5048383;28;20083;-67
2023/04/30 04:47:33;;;;;;;8.18;5.25;;;;;;;;;;5049508;28;20045;-67
2023/04/30 04:50:00;;;;;;;8.32;5.50;;;;;;;;;;5049134;28;20057;-68
2023/04/30 04:52:28;;;;;;;7.25;4.88;;;;;;;;;;5049046;28;20093;-68
2023/04/30 04:54:55;;;;;;;7.85;5.32;;;;;;;;;;5049492;28;20132;-68
2023/04/30 04:57:22;;;;;;;8.23;5.20;;;;;;;;;;5049413;28;20047;-67
2023/04/30 04:59:50;;;;;;;7.13;5.20;;;;;;;;;;5049251;28;20045;-68
2023/04/30 05:02:16;;;;;;;9.13;5.53;;;;;;;;;;5049213;28;20151;-68
2023/04/30 05:04:45;;;;;;;7.72;5.72;;;;;;;;;;5049321;28;20045;-68
2023/04/30 05:07:12;;;;;;;8.43;5.47;;;;;;;;;;5049541;28;20139;-68
2023/04/30 05:09:40;;;;;;;8.75;5.90;;;;;;;;;;5049252;28;20426;-68
2023/04/30 05:12:07;;;;;;;6.90;5.03;;;;;;;;;;5049031;28;20053;-69
2023/04/30 05:14:34;;;;;;;7.70;4.88;;;;;;;;;;5048677;28;20057;-68
2023/04/30 05:17:01;;;;;;;8.05;5.45;;;;;;;;;;5049400;28;20052;-68
2023/04/30 05:19:28;;;;;;;7.95;5.57;;;;;;;;;;5049613;28;20167;-68
2023/04/30 05:21:55;;;;;;;8.07;5.30;;;;;;;;;;5049498;28;20057;-68
2023/04/30 05:24:21;;;;;;;7.20;5.85;;;;;;;;;;5049518;28;20528;-68
2023/04/30 05:26:50;;;;;;;7.22;5.45;;;;;;;;;;5049592;28;20122;-68
2023/04/30 05:29:16;;;;;;;8.43;6.65;;;;;;;;;;5049056;28;20107;-68
2023/04/30 05:31:43;;;;;;;8.98;6.97;;;;;;;;;;5049207;28;20164;-67
2023/04/30 05:34:10;;;;;;;10.10;5.95;;;;;;;;;;5049305;28;20099;-69
2023/04/30 05:36:37;;;;;;;8.52;6.03;;;;;;;;;;5049578;28;20548;-67
2023/04/30 05:39:04;;;;;;;9.10;6.22;;;;;;;;;;5049106;28;20083;-67
2023/04/30 05:41:31;;;;;;;6.93;5.10;;;;;;;;;;5049117;28;20049;-67
2023/04/30 05:44:01;;;;;;;8.55;6.10;;;;;;;;;;5049208;28;20107;-66
2023/04/30 05:46:28;;;;;;;7.50;5.70;;;;;;;;;;5049607;28;20048;-67
2023/04/30 05:48:55;;;;;;;8.07;5.90;;;;;;;;;;5049672;28;20048;-67
2023/04/30 05:51:22;;;;;;;7.05;5.32;;;;;;;;;;5048990;28;20523;-67
2023/04/30 05:53:48;;;;;;;8.55;6.25;;;;;;;;;;5048881;28;20041;-67
2023/04/30 05:56:15;;;;;;;7.45;5.30;;;;;;;;;;5049098;28;20049;-67
2023/04/30 05:58:42;;;;;;;7.53;5.72;;;;;;;;;;5052609;28;20127;-67
2023/04/30 06:01:11;;;;;;;8.68;5.78;;;;;;;;;;5052377;28;20053;-67
2023/04/30 06:03:38;;;;;;;8.60;6.07;;;;;;;;;;5052468;28;20140;-67
2023/04/30 06:06:05;;;;;;;7.32;5.40;;;;;;;;;;5052887;28;20049;-67
2023/04/30 06:08:32;;;;;;;6.68;5.15;;;;;;;;;;5053613;28;20460;-67
2023/04/30 06:10:59;;;;;;;8.25;6.03;;;;;;;;;;5052811;28;20052;-68
2023/04/30 06:13:26;;;;;;;8.10;5.72;;;;;;;;;;5054473;28;20061;-68
2023/04/30 06:15:53;;;;;;;8.30;5.93;;;;;;;;;;5053269;28;20095;-67
2023/04/30 06:18:21;;;;;;;7.57;5.40;;;;;;;;;;5052878;28;20049;-68
2023/04/30 06:20:48;;;;;;;8.00;6.10;;;;;;;;;;5052595;28;20053;-70
2023/04/30 06:23:14;;;;;;;7.35;5.55;;;;;;;;;;5052792;28;20048;-68
2023/04/30 06:25:41;;;;;;;7.50;5.60;;;;;;;;;;5052609;28;20466;-68
2023/04/30 06:28:08;;;;;;;7.60;5.53;;;;;;;;;;5052819;28;20107;-67
2023/04/30 06:30:36;;;;;;;7.78;5.85;;;;;;;;;;5052847;28;20520;-68
2023/04/30 06:33:03;;;;;;;7.20;5.25;;;;;;;;;;5052727;28;20099;-68
2023/04/30 06:35:31;;;;;;;6.55;5.07;;;;;;;;;;5052788;28;20049;-68
2023/04/30 06:37:58;;;;;;;6.97;5.22;;;;;;;;;;5052580;28;20052;-66
2023/04/30 06:40:25;;;;;;;8.60;5.40;;;;;;;;;;5052793;28;20666;-68
2023/04/30 06:42:53;;;;;;;6.68;5.20;;;;;;;;;;5052563;28;20179;-68
2023/04/30 06:45:20;;;;;;;7.38;5.60;;;;;;;;;;5052558;28;20456;-68
2023/04/30 06:47:47;;;;;;;7.18;5.43;;;;;;;;;;5052126;28;20048;-68
2023/04/30 06:50:14;;;;;;;7.97;5.07;;;;;;;;;;5052036;28;20103;-68
2023/04/30 06:52:48;;;;;;;7.05;5.50;;;;;;;;;;5052087;28;20044;-68
2023/04/30 06:55:15;;;;;;;7.07;5.63;;;;;;;;;;5051759;28;20060;-68
2023/04/30 06:57:42;;;;;;;6.82;5.00;;;;;;;;;;5052708;28;20045;-68
2023/04/30 07:00:10;;;;;;;6.60;5.00;;;;;;;;;;5051903;28;20088;-68
2023/04/30 07:02:37;;;;;;;7.28;5.00;;;;;;;;;;5052069;28;20057;-68
2023/04/30 07:05:04;;;;;;;7.55;5.43;;;;;;;;;;5051735;28;20048;-68
2023/04/30 07:07:31;;;;;;;7.30;5.22;;;;;;;;;;5051833;28;20095;-68
2023/04/30 07:09:59;;;;;;;7.50;5.40;;;;;;;;;;5050739;28;20138;-68
2023/04/30 07:12:26;;;;;;;8.30;5.22;;;;;;;;;;5051214;28;20041;-68
2023/04/30 07:14:54;;;;;;;6.55;5.00;;;;;;;;;;5051674;28;20554;-68
2023/04/30 07:17:20;;;;;;;7.10;5.70;;;;;;;;;;5051648;28;20052;-68
2023/04/30 07:19:47;;;;;;;6.38;4.60;;;;;;;;;;5051260;28;20048;-67
2023/04/30 07:22:14;;;;;;;6.85;5.15;;;;;;;;;;5050966;28;20040;-66
2023/04/30 07:24:41;;;;;;;7.38;5.90;;;;;;;;;;5051456;28;20332;-67
2023/04/30 07:27:09;;;;;;;6.60;5.10;;;;;;;;;;5051132;28;20482;-68
2023/04/30 07:29:36;;;;;;;6.55;4.85;;;;;;;;;;5050912;28;20045;-67
2023/04/30 07:32:03;;;;;;;7.32;5.00;;;;;;;;;;5050854;28;20468;-68
2023/04/30 07:34:30;;;;;;;6.97;5.15;;;;;;;;;;5051492;28;20057;-68
2023/04/30 07:36:57;;;;;;;6.47;5.20;;;;;;;;;;5051112;28;20052;-68
2023/04/30 07:39:24;;;;;;;7.78;5.35;;;;;;;;;;5051237;28;20060;-68
2023/04/30 07:41:51;;;;;;;7.72;5.53;;;;;;;;;;5050972;28;20049;-67
2023/04/30 07:44:20;;;;;;;7.90;5.70;;;;;;;;;;5051012;28;20052;-67
2023/04/30 07:46:47;;;;;;;7.47;5.70;;;;;;;;;;5051333;28;20441;-68
2023/04/30 07:49:13;;;;;;;7.35;5.78;;;;;;;;;;5051261;28;20049;-67
2023/04/30 07:51:41;;;;;;;8.38;5.90;;;;;;;;;;5050565;28;20505;-68
2023/04/30 07:54:08;;;;;;;7.38;5.55;;;;;;;;;;5051035;28;20467;-68
2023/04/30 07:56:35;;;;;;;7.13;5.20;;;;;;;;;;5050830;28;20555;-68
2023/04/30 07:59:02;;;;;;;7.50;5.80;;;;;;;;;;5051244;28;20140;-68
2023/04/30 08:01:31;;;;;;;7.03;5.13;;;;;;;;;;5045248;28;20420;-68
2023/04/30 08:03:58;;;;;;;7.00;5.43;;;;;;;;;;5031264;28;20052;-68
2023/04/30 08:06:26;;;;;;;7.15;5.68;;;;;;;;;;5034066;28;20044;-68
2023/04/30 08:08:53;;;;;;;9.52;6.25;;;;;;;;;;5041506;28;20577;-68
2023/04/30 08:11:20;;;;;;;9.43;7.22;;;;;;;;;;5044214;28;20037;-67
2023/04/30 08:13:49;;;;;;;9.60;7.38;;;;;;;;;;5024567;28;20045;-68
2023/04/30 08:16:15;;;;;;;8.50;6.47;;;;;;;;;;5041057;28;20045;-68
2023/04/30 08:18:45;;;;;;;8.73;6.45;;;;;;;;;;5037324;28;20049;-70
2023/04/30 08:21:12;;;;;;;9.32;7.18;;;;;;;;;;5032395;28;20053;-68
2023/04/30 08:23:39;;;;;;;8.82;7.22;;;;;;;;;;5050944;28;20048;-68
2023/04/30 08:26:06;;;;;;;8.15;6.40;;;;;;;;;;5048952;28;20420;-69
2023/04/30 08:28:34;;;;;;;8.57;6.63;;;;;;;;;;5035532;28;20053;-69
2023/04/30 08:31:01;;;;;;;7.53;6.10;;;;;;;;;;5042351;28;20433;-68
2023/04/30 08:33:28;;;;;;;8.82;6.55;;;;;;;;;;5050175;28;20056;-68
2023/04/30 08:35:56;;;;;;;8.07;6.10;;;;;;;;;;5050034;28;20122;-67
2023/04/30 08:38:23;;;;;;;8.48;5.72;;;;;;;;;;5049794;28;20076;-68
2023/04/30 08:40:57;;;;;;;7.78;5.93;;;;;;;;;;5049855;28;20056;-68
2023/04/30 08:43:24;;;;;;;8.70;6.10;;;;;;;;;;5050130;28;20494;-68
2023/04/30 08:45:51;;;;;;;13.57;8.65;;;;;;;;;;5050086;28;20541;-68
2023/04/30 08:48:20;;;;;;;7.20;5.22;;;;;;;;;;5049947;28;20056;-68
2023/04/30 08:50:47;;;;;;;5.80;4.10;;;;;;;;;;5049893;28;20087;-69
2023/04/30 08:53:16;;;;;;;6.95;4.97;;;;;;;;;;5049746;28;20041;-68
2023/04/30 08:55:43;;;;;;;6.30;4.43;;;;;;;;;;5049783;28;20079;-68
2023/04/30 08:58:10;;;;;;;6.68;4.60;;;;;;;;;;5049603;28;20091;-68
2023/04/30 09:00:38;;;;;;;6.60;5.35;;;;;;;;;;5049910;28;20509;-68
2023/04/30 09:03:05;;;;;;;6.45;4.30;;;;;;;;;;5049974;28;20048;-67
2023/04/30 09:05:32;;;;;;;6.47;4.47;;;;;;;;;;5049835;28;20041;-69
2023/04/30 09:07:59;;;;;;;5.78;4.47;;;;;;;;;;5049564;28;20052;-69
2023/04/30 09:10:28;;;;;;;5.97;4.13;;;;;;;;;;5049614;28;20045;-69
2023/04/30 09:13:01;;;;;;;6.38;4.78;;;;;;;;;;5049867;28;20052;-68
2023/04/30 09:15:29;;;;;;;6.07;4.38;;;;;;;;;;5049685;28;20053;-68
2023/04/30 09:18:10;;;;;;;6.32;4.45;;;;;;;;;;5050106;28;20559;-67
2023/04/30 09:20:37;;;;;;;6.78;4.97;;;;;;;;;;5049569;28;20132;-68
2023/04/30 09:23:08;;;;;;;5.53;4.03;;;;;;;;;;5049702;28;20342;-67
2023/04/30 09:25:43;;;;;;;6.47;4.55;;;;;;;;;;5049714;28;20056;-67
2023/04/30 09:28:11;;;;;;;5.95;4.53;;;;;;;;;;5049286;28;20045;-67
2023/04/30 09:30:38;;;;;;;5.90;4.28;;;;;;;;;;5049863;28;20049;-68
2023/04/30 09:33:05;;;;;;;6.30;3.92;;;;;;;;;;5052826;28;20045;-68
2023/04/30 09:35:33;;;;;;;4.72;3.47;;;;;;;;;;5053413;28;20554;-67
2023/04/30 09:38:01;;;;;;;5.47;4.22;;;;;;;;;;5053607;28;20519;-67
2023/04/30 09:40:39;;;;;;;5.50;4.18;;;;;;;;;;5053216;28;20090;-68
2023/04/30 09:43:07;;;;;;;6.82;4.53;;;;;;;;;;5054036;28;20128;-68
2023/04/30 09:45:41;;;;;;;6.22;4.70;;;;;;;;;;5053665;28;20084;-67
2023/04/30 09:48:09;;;;;;;6.35;4.20;;;;;;;;;;5053524;28;20736;-69
2023/04/30 09:50:40;;;;;;;7.68;4.63;;;;;;;;;;5053574;28;20538;-68
2023/04/30 09:53:08;;;;;;;5.97;4.85;;;;;;;;;;5053366;28;20409;-69
2023/04/30 09:55:36;;;;;;;7.28;4.72;;;;;;;;;;5052972;28;20057;-68
2023/04/30 09:58:06;;;;;;;7.53;5.00;;;;;;;;;;5052986;28;20118;-69
2023/04/30 10:00:35;;;;;;;5.97;4.97;;;;;;;;;;5053017;28;20080;-68
2023/04/30 10:03:06;;;;;;;6.80;4.40;;;;;;;;;;5053364;28;20398;-69
2023/04/30 10:05:36;;;;;;;6.15;4.30;;;;;;;;;;5052560;28;20143;-68
2023/04/30 10:08:04;;;;;;;5.57;4.57;;;;;;;;;;5052893;28;20053;-68
2023/04/30 10:10:32;;;;;;;5.68;4.30;;;;;;;;;;5052972;28;20056;-68
2023/04/30 10:13:03;;;;;;;5.05;4.07;;;;;;;;;;5053442;28;20418;-68
2023/04/30 10:15:38;;;;;;;5.60;4.35;;;;;;;;;;5053620;28;20057;-68
2023/04/30 10:18:06;;;;;;;6.05;3.67;;;;;;;;;;5053192;28;20053;-68
2023/04/30 10:20:36;;;;;;;5.50;4.32;;;;;;;;;;5053219;28;20133;-67
2023/04/30 10:23:03;;;;;;;5.28;4.07;;;;;;;;;;5053317;28;20497;-68
2023/04/30 10:25:30;;;;;;;5.18;3.90;;;;;;;;;;5053722;28;20106;-69
2023/04/30 10:27:57;;;;;;;5.10;3.75;;;;;;;;;;5053017;28;20103;-68
2023/04/30 10:30:24;;;;;;;5.57;3.58;;;;;;;;;;5053100;28;20045;-68
2023/04/30 10:32:59;;;;;;;5.53;3.90;;;;;;;;;;5053244;28;20466;-68
2023/04/30 10:35:30;;;;;;;5.45;3.85;;;;;;;;;;5053456;28;20049;-69
2023/04/30 10:38:03;;;;;;;5.30;3.55;;;;;;;;;;5053461;28;20060;-68
2023/04/30 10:40:37;;;;;;;5.05;3.80;;;;;;;;;;5053297;28;20049;-67
2023/04/30 10:43:04;;;;;;;5.95;3.88;;;;;;;;;;5052388;28;20513;-68
2023/04/30 10:45:44;;;;;;;6.60;4.45;;;;;;;;;;5051999;28;20049;-68
2023/04/30 10:48:15;;;;;;;5.68;3.97;;;;;;;;;;5052142;28;20144;-67
2023/04/30 10:50:45;;;;;;;6.45;3.53;;;;;;;;;;5052249;28;20422;-68
2023/04/30 10:53:14;;;;;;;5.75;3.88;;;;;;;;;;5051631;28;20045;-68
2023/04/30 10:55:47;;;;;;;4.97;3.28;;;;;;;;;;5051720;28;20053;-68
2023/04/30 10:58:24;;;;;;;4.75;3.33;;;;;;;;;;5052069;28;20144;-66
2023/04/30 11:00:59;;;;;;;5.15;3.45;;;;;;;;;;5051873;28;20143;-67
2023/04/30 11:03:29;;;;;;;5.47;3.60;;;;;;;;;;5051937;28;20159;-68
2023/04/30 11:05:56;;;;;;;4.88;3.40;;;;;;;;;;5051963;28;20045;-68
2023/04/30 11:08:33;;;;;;;5.30;3.63;;;;;;;;;;5051685;28;20056;-68
2023/04/30 11:11:02;;;;;;;4.63;3.33;;;;;;;;;;5051751;28;20126;-68
2023/04/30 11:13:29;;;;;;;4.18;2.88;;;;;;;;;;5051387;28;20053;-68
2023/04/30 11:16:03;;;;;;;4.40;3.03;;;;;;;;;;5051653;28;20053;-68
2023/04/30 11:18:31;;;;;;;4.97;3.30;;;;;;;;;;5051558;28;20534;-68
2023/04/30 11:20:58;;;;;;;5.22;3.30;;;;;;;;;;5051617;28;20051;-68
2023/04/30 11:23:26;;;;;;;9.38;5.28;;;;;;;;;;5051927;28;20059;-68
2023/04/30 11:25:55;;;;;;;4.88;3.10;;;;;;;;;;5051539;28;20119;-68
2023/04/30 11:28:24;;;;;;;3.80;2.67;;;;;;;;;;5051372;28;20127;-68
2023/04/30 11:30:56;;;;;;;5.85;3.60;;;;;;;;;;5051264;28;20049;-69
2023/04/30 11:33:25;;;;;;;4.53;3.30;;;;;;;;;;5051655;28;20057;-69
2023/04/30 11:35:55;;;;;;;4.15;2.88;;;;;;;;;;5052227;28;20461;-68
2023/04/30 11:38:25;;;;;;;5.60;3.87;;;;;;;;;;5051914;28;20457;-69
2023/04/30 11:40:53;;;;;;;;;;;;;;;;;;5051972;28;20090;-67
2023/04/30 11:43:24;;;;;;;4.60;2.80;;;;;;;;;;5051341;28;19931;-68
2023/04/30 11:46:07;;;;;;;4.88;2.80;;;;;;;;;;5051004;28;20460;-68
2023/04/30 11:48:35;;;;;;;4.43;2.95;;;;;;;;;;5049515;28;20075;-69
2023/04/30 11:51:15;;;;;;;4.32;2.75;;;;;;;;;;5051514;28;20040;-69
2023/04/30 11:53:42;;;;;;;4.35;3.00;;;;;;;;;;5050890;28;20476;-70
2023/04/30 11:56:09;;;;;;;5.45;3.20;;;;;;;;;;5050721;28;20418;-68
2023/04/30 11:58:37;;;;;;;5.00;3.25;;;;;;;;;;5051007;28;20053;-68
2023/04/30 12:01:05;;;;;;;4.20;3.10;;;;;;;;;;5050754;28;20075;-68
2023/04/30 12:03:32;;;;;;;4.20;2.90;;;;;;;;;;5051302;28;20251;-68
2023/04/30 12:08:33;;;;;;;4.50;3.10;;;;;;;;;;5029218;28;20743;-70
2023/04/30 12:10:59;;;;;;;4.85;3.03;;;;;;;;;;5030851;28;20045;-69
2023/04/30 12:13:26;;;;;;;4.30;3.15;;;;;;;;;;5030676;28;20456;-69
2023/04/30 12:16:02;;;;;;;5.30;3.63;;;;;;;;;;5030862;28;20452;-69
2023/04/30 12:18:29;;;;;;;4.40;3.35;;;;;;;;;;5030916;28;20050;-70
2023/04/30 12:20:56;;;;;;;4.38;3.35;;;;;;;;;;5030972;28;20123;-70
2023/04/30 12:23:23;;;;;;;4.88;3.20;;;;;;;;;;5030888;28;20060;-68
2023/04/30 12:25:52;;;;;;;6.68;3.50;;;;;;;;;;5030568;28;20049;-70
2023/04/30 12:28:18;;;;;;;4.80;3.20;;;;;;;;;;5030634;28;20570;-70
2023/04/30 12:30:47;;;;;;;4.32;3.00;;;;;;;;;;5030362;28;20241;-70
2023/04/30 12:33:15;;;;;;;4.43;2.97;;;;;;;;;;5030589;28;20441;-70
2023/04/30 12:35:43;;;;;;;4.65;3.05;;;;;;;;;;5031106;28;20525;-69
2023/04/30 12:38:10;;;;;;;4.80;3.03;;;;;;;;;;5030097;28;20049;-69
2023/04/30 12:40:37;;;;;;;4.15;2.80;;;;;;;;;;5030004;28;20100;-69
2023/04/30 12:43:07;;;;;;;4.85;2.80;;;;;;;;;;5030465;28;20441;-68
2023/04/30 12:45:46;;;;;;;5.03;3.40;;;;;;;;;;5030537;28;20052;-69
2023/04/30 12:48:15;;;;;;;4.20;3.00;;;;;;;;;;5029998;28;20111;-70
2023/04/30 12:50:42;;;;;;;4.03;3.00;;;;;;;;;;5030038;28;20050;-70
2023/04/30 12:53:09;;;;;;;4.15;2.88;;;;;;;;;;5030146;28;20131;-69
2023/04/30 12:55:38;;;;;;;4.35;2.85;;;;;;;;;;5029921;28;20239;-69
2023/04/30 12:58:07;;;;;;;4.88;3.05;;;;;;;;;;5030076;28;20386;-69
2023/04/30 13:00:47;;;;;;;4.95;3.10;;;;;;;;;;5030289;28;20045;-69
2023/04/30 13:03:16;;;;;;;5.95;3.20;;;;;;;;;;5013156;28;20120;-69
2023/04/30 13:05:47;;;;;;;4.65;3.25;;;;;;;;;;5010303;28;20267;-68
2023/04/30 13:08:14;;;;;;;4.05;3.20;;;;;;;;;;5013432;28;20052;-70
2023/04/30 13:10:41;;;;;;;5.35;2.70;;;;;;;;;;5013796;28;20050;-69
2023/04/30 13:13:09;;;;;;;5.93;3.47;;;;;;;;;;5013906;28;20050;-69
2023/04/30 13:15:36;;;;;;;4.40;3.03;;;;;;;;;;5013880;28;20058;-69
2023/04/30 13:18:03;;;;;;;5.55;3.00;;;;;;;;;;5014213;28;20050;-69
2023/04/30 13:20:30;;;;;;;4.30;2.80;;;;;;;;;;5014138;28;20107;-69
2023/04/30 13:22:58;;;;;;;4.30;3.03;;;;;;;;;;5014642;28;20054;-69
2023/04/30 13:25:26;;;;;;;4.13;2.80;;;;;;;;;;5013754;28;20050;-69
2023/04/30 13:27:52;;;;;;;4.25;2.90;;;;;;;;;;5013812;28;20493;-68
2023/04/30 13:30:21;;;;;;;4.35;3.05;;;;;;;;;;5013843;28;20406;-68
2023/04/30 13:32:48;;;;;;;4.10;2.70;;;;;;;;;;5014323;28;20108;-70
2023/04/30 13:35:16;;;;;;;4.35;2.70;;;;;;;;;;5014883;28;20046;-69
2023/04/30 13:37:43;;;;;;;4.10;3.03;;;;;;;;;;5013912;28;20049;-69
2023/04/30 13:40:10;;;;;;;3.80;2.63;;;;;;;;;;5013310;28;20391;-70
2023/04/30 13:42:39;;;;;;;4.47;2.65;;;;;;;;;;5013161;28;20046;-69
2023/04/30 13:45:08;;;;;;;4.13;2.90;;;;;;;;;;5006368;28;20534;-68
2023/04/30 13:47:37;;;;;;;5.75;2.50;;;;;;;;;;5014865;28;20069;-69
2023/04/30 13:50:06;;;;;;;5.55;2.75;;;;;;;;;;5014287;28;20054;-70
2023/04/30 13:52:35;;;;;;;3.67;2.35;;;;;;;;;;5014051;28;20053;-70
2023/04/30 13:55:02;;;;;;;4.35;2.65;;;;;;;;;;5014370;28;20108;-70
2023/04/30 13:57:31;;;;;;;4.05;2.72;;;;;;;;;;5013447;28;20046;-70
2023/04/30 13:59:58;;;;;;;3.47;2.50;;;;;;;;;;5013439;28;20053;-70
2023/04/30 14:02:26;;;;;;;5.18;2.63;;;;;;;;;;5013115;28;20050;-69
2023/04/30 14:04:55;;;;;;;4.80;2.90;;;;;;;;;;5013192;28;20141;-68
2023/04/30 14:07:22;;;;;;;4.65;2.75;;;;;;;;;;5012914;28;20101;-68
2023/04/30 14:09:49;;;;;;;6.10;3.22;;;;;;;;;;5011817;28;20087;-70
2023/04/30 14:12:16;;;;;;;4.03;2.55;;;;;;;;;;5012909;28;20057;-69
2023/04/30 14:14:42;;;;;;;4.00;2.47;;;;;;;;;;5011820;28;20127;-69
2023/04/30 14:17:09;;;;;;;5.18;2.85;;;;;;;;;;5013449;28;20050;-69
2023/04/30 14:19:39;;;;;;;4.05;2.83;;;;;;;;;;5013589;28;20057;-69
2023/04/30 14:22:12;;;;;;;4.28;2.45;;;;;;;;;;5013566;28;20050;-70
2023/04/30 14:24:42;;;;;;;4.68;3.35;;;;;;;;;;5013631;28;20054;-71
2023/04/30 14:27:09;;;;;;;4.10;2.88;;;;;;;;;;5011576;28;20497;-69
2023/04/30 14:29:36;;;;;;;4.07;2.65;;;;;;;;;;5012557;28;20073;-71
2023/04/30 14:32:03;;;;;;;4.93;3.20;;;;;;;;;;5012720;28;20060;-67
2023/04/30 14:34:30;;;;;;;4.88;3.10;;;;;;;;;;5012261;28;20490;-68
2023/04/30 14:37:00;;;;;;;4.97;2.72;;;;;;;;;;5012558;28;20658;-72
2023/04/30 14:39:28;;;;;;;4.47;2.53;;;;;;;;;;5012683;28;20054;-72
2023/04/30 14:41:55;;;;;;;4.65;3.25;;;;;;;;;;5012387;28;20491;-72
2023/04/30 14:44:24;;;;;;;3.65;2.72;;;;;;;;;;5012633;28;20549;-69
2023/04/30 14:46:51;;;;;;;4.13;2.67;;;;;;;;;;5012348;28;20053;-69
2023/04/30 14:49:18;;;;;;;4.45;2.90;;;;;;;;;;5012634;28;20117;-72
2023/04/30 14:51:44;;;;;;;3.90;2.83;;;;;;;;;;5012414;28;20050;-72
2023/04/30 14:54:11;;;;;;;4.30;2.80;;;;;;;;;;5012102;28;20049;-72